< Typhoon 200022 2000 Season Typhoon 200101 >
Typhoon 200023 (SOULIK)
General InformationTrack Information on Google MapsDetailed Wind InformationList of All Images || Disaster Info.ResourceGoogle EarthGE AnimationAtom FeedGeoJSON
Detalied Best Track (Time Zone = UTC)
Year Month Day Hour Lat. Long. Pressure (hPa) Wind (kt) Class Image Chart
2000 12 28 18 7.8 130.2 1002 0 2 Image Chart
2000 12 29 00 8.7 130.3 1002 0 2 Image Chart
2000 12 29 06 9.3 129.9 1000 0 2 Image Chart
2000 12 29 12 10.0 129.5 1000 0 2 Image Chart
2000 12 29 18 10.4 128.5 998 0 2 Image Chart
2000 12 30 00 10.4 127.8 994 35 3 Image Chart
2000 12 30 06 10.7 127.1 992 40 3 Image Chart
2000 12 30 12 11.0 127.4 990 45 3 Image Chart
2000 12 30 18 11.7 127.8 990 45 3 Image Chart
2000 12 31 00 12.4 128.0 990 45 3 Image Chart
2000 12 31 06 13.1 128.5 990 45 3 Image Chart
2000 12 31 12 13.8 129.6 990 45 3 Image Chart
2000 12 31 18 14.4 130.7 985 50 4 Image Chart
2001 1 1 00 14.8 131.8 985 50 4 Image Chart
2001 1 1 06 15.2 132.4 985 50 4 Image Chart
2001 1 1 12 15.5 133.2 985 50 4 Image Chart
2001 1 1 18 15.6 133.9 985 50 4 Image Chart
2001 1 2 00 15.8 134.5 985 50 4 Image Chart
2001 1 2 06 16.3 134.6 990 45 3 Image Chart
2001 1 2 12 16.7 134.7 990 45 3 Image Chart
2001 1 2 18 17.0 134.8 985 50 4 Image Chart
2001 1 3 00 17.2 135.0 980 55 4 Image Chart
2001 1 3 06 17.5 135.5 965 70 5 Image Chart
2001 1 3 12 17.9 135.9 955 80 5 Image Chart
2001 1 3 18 18.2 136.2 955 80 5 Image Chart
2001 1 4 00 18.3 136.6 960 70 5 Image Chart
2001 1 4 06 18.5 136.9 975 60 4 Image Chart
2001 1 4 12 18.3 137.2 990 45 3 Image Chart
2001 1 4 18 18.0 137.6 1000 0 2 Image Chart
Japan Meteorological Agency Best Track Data | Correction Date : 2001-12-21
< Typhoon 200022 2000 Season Typhoon 200101 >

Help